sensor_id;sensor_type;location;lat;lon;timestamp;P1;durP1;ratioP1;P2;durP2;ratioP2
40995;SDS011;26723;57.478;12.066;2023-05-07T00:01:16;1.20;;;1.20;;
40995;SDS011;26723;57.478;12.066;2023-05-07T00:04:27;1.20;;;1.20;;
40995;SDS011;26723;57.478;12.066;2023-05-07T00:07:35;1.13;;;1.13;;
40995;SDS011;26723;57.478;12.066;2023-05-07T00:10:44;1.10;;;1.10;;
40995;SDS011;26723;57.478;12.066;2023-05-07T00:13:53;1.60;;;1.50;;
40995;SDS011;26723;57.478;12.066;2023-05-07T00:17:01;2.53;;;1.20;;
40995;SDS011;26723;57.478;12.066;2023-05-07T00:20:11;1.27;;;1.20;;
40995;SDS011;26723;57.478;12.066;2023-05-07T00:23:20;1.40;;;1.40;;
40995;SDS011;26723;57.478;12.066;2023-05-07T00:26:28;2.83;;;1.60;;
40995;SDS011;26723;57.478;12.066;2023-05-07T00:29:36;1.50;;;1.30;;
40995;SDS011;26723;57.478;12.066;2023-05-07T00:32:45;2.47;;;1.77;;
40995;SDS011;26723;57.478;12.066;2023-05-07T00:35:56;1.63;;;1.53;;
40995;SDS011;26723;57.478;12.066;2023-05-07T00:39:07;1.40;;;1.30;;
40995;SDS011;26723;57.478;12.066;2023-05-07T00:42:16;1.40;;;1.30;;
40995;SDS011;26723;57.478;12.066;2023-05-07T00:45:25;1.50;;;1.40;;
40995;SDS011;26723;57.478;12.066;2023-05-07T00:48:35;1.67;;;1.57;;
40995;SDS011;26723;57.478;12.066;2023-05-07T00:51:45;1.23;;;1.23;;
40995;SDS011;26723;57.478;12.066;2023-05-07T00:54:53;1.50;;;1.40;;
40995;SDS011;26723;57.478;12.066;2023-05-07T00:58:02;1.33;;;1.33;;
40995;SDS011;26723;57.478;12.066;2023-05-07T01:04:43;1.07;;;1.07;;
40995;SDS011;26723;57.478;12.066;2023-05-07T01:07:55;1.83;;;1.57;;
40995;SDS011;26723;57.478;12.066;2023-05-07T01:11:04;2.33;;;1.27;;
40995;SDS011;26723;57.478;12.066;2023-05-07T01:14:13;1.37;;;1.27;;
40995;SDS011;26723;57.478;12.066;2023-05-07T01:17:22;1.20;;;1.20;;
40995;SDS011;26723;57.478;12.066;2023-05-07T01:20:31;1.40;;;1.20;;
40995;SDS011;26723;57.478;12.066;2023-05-07T01:23:42;2.40;;;1.10;;
40995;SDS011;26723;57.478;12.066;2023-05-07T01:26:54;1.10;;;1.10;;
40995;SDS011;26723;57.478;12.066;2023-05-07T01:30:05;1.57;;;1.20;;
40995;SDS011;26723;57.478;12.066;2023-05-07T01:33:15;1.20;;;1.10;;
40995;SDS011;26723;57.478;12.066;2023-05-07T01:36:29;1.27;;;1.27;;
40995;SDS011;26723;57.478;12.066;2023-05-07T01:39:39;3.27;;;1.50;;
40995;SDS011;26723;57.478;12.066;2023-05-07T01:42:48;1.63;;;1.27;;
40995;SDS011;26723;57.478;12.066;2023-05-07T01:45:57;1.80;;;1.50;;
40995;SDS011;26723;57.478;12.066;2023-05-07T01:49:07;1.67;;;1.57;;
40995;SDS011;26723;57.478;12.066;2023-05-07T01:52:17;1.77;;;1.30;;
40995;SDS011;26723;57.478;12.066;2023-05-07T01:55:27;1.43;;;1.20;;
40995;SDS011;26723;57.478;12.066;2023-05-07T01:58:35;2.97;;;1.17;;
40995;SDS011;26723;57.478;12.066;2023-05-07T02:01:44;1.33;;;1.23;;
40995;SDS011;26723;57.478;12.066;2023-05-07T02:04:54;1.13;;;1.03;;
40995;SDS011;26723;57.478;12.066;2023-05-07T02:08:02;1.43;;;1.43;;
40995;SDS011;26723;57.478;12.066;2023-05-07T02:11:13;0.90;;;0.90;;
40995;SDS011;26723;57.478;12.066;2023-05-07T02:14:21;1.80;;;1.00;;
40995;SDS011;26723;57.478;12.066;2023-05-07T02:17:30;1.00;;;1.00;;
40995;SDS011;26723;57.478;12.066;2023-05-07T02:20:39;1.10;;;1.10;;
40995;SDS011;26723;57.478;12.066;2023-05-07T02:23:48;1.23;;;1.20;;
40995;SDS011;26723;57.478;12.066;2023-05-07T02:26:58;1.20;;;1.10;;
40995;SDS011;26723;57.478;12.066;2023-05-07T02:30:07;1.30;;;1.30;;
40995;SDS011;26723;57.478;12.066;2023-05-07T02:33:17;1.20;;;1.10;;
40995;SDS011;26723;57.478;12.066;2023-05-07T02:36:26;1.33;;;1.13;;
40995;SDS011;26723;57.478;12.066;2023-05-07T02:39:44;1.00;;;1.00;;
40995;SDS011;26723;57.478;12.066;2023-05-07T02:42:53;1.00;;;1.00;;
40995;SDS011;26723;57.478;12.066;2023-05-07T02:46:02;1.40;;;1.00;;
40995;SDS011;26723;57.478;12.066;2023-05-07T02:49:14;1.40;;;1.33;;
40995;SDS011;26723;57.478;12.066;2023-05-07T02:52:23;1.10;;;1.10;;
40995;SDS011;26723;57.478;12.066;2023-05-07T02:55:31;1.10;;;1.07;;
40995;SDS011;26723;57.478;12.066;2023-05-07T02:58:42;1.33;;;1.07;;
40995;SDS011;26723;57.478;12.066;2023-05-07T03:01:51;1.00;;;1.00;;
40995;SDS011;26723;57.478;12.066;2023-05-07T03:05:00;1.30;;;1.03;;
40995;SDS011;26723;57.478;12.066;2023-05-07T03:08:08;1.30;;;1.20;;
40995;SDS011;26723;57.478;12.066;2023-05-07T03:11:17;0.97;;;0.97;;
40995;SDS011;26723;57.478;12.066;2023-05-07T03:14:27;1.17;;;1.07;;
40995;SDS011;26723;57.478;12.066;2023-05-07T03:17:36;2.03;;;1.00;;
40995;SDS011;26723;57.478;12.066;2023-05-07T03:20:45;1.00;;;1.00;;
40995;SDS011;26723;57.478;12.066;2023-05-07T03:23:57;1.17;;;1.07;;
40995;SDS011;26723;57.478;12.066;2023-05-07T03:27:05;1.23;;;1.13;;
40995;SDS011;26723;57.478;12.066;2023-05-07T03:30:15;0.97;;;0.97;;
40995;SDS011;26723;57.478;12.066;2023-05-07T03:33:25;0.97;;;0.93;;
40995;SDS011;26723;57.478;12.066;2023-05-07T03:36:34;1.20;;;1.10;;
40995;SDS011;26723;57.478;12.066;2023-05-07T03:39:45;1.27;;;1.27;;
40995;SDS011;26723;57.478;12.066;2023-05-07T03:42:54;1.30;;;1.20;;
40995;SDS011;26723;57.478;12.066;2023-05-07T03:46:06;1.50;;;1.10;;
40995;SDS011;26723;57.478;12.066;2023-05-07T03:49:15;1.17;;;1.10;;
40995;SDS011;26723;57.478;12.066;2023-05-07T03:52:24;1.00;;;1.00;;
40995;SDS011;26723;57.478;12.066;2023-05-07T03:55:36;1.00;;;1.00;;
40995;SDS011;26723;57.478;12.066;2023-05-07T03:58:45;1.20;;;1.20;;
40995;SDS011;26723;57.478;12.066;2023-05-07T04:01:57;0.90;;;0.90;;
40995;SDS011;26723;57.478;12.066;2023-05-07T04:05:10;1.23;;;1.07;;
40995;SDS011;26723;57.478;12.066;2023-05-07T04:08:20;2.63;;;1.30;;
40995;SDS011;26723;57.478;12.066;2023-05-07T04:11:32;1.00;;;1.00;;
40995;SDS011;26723;57.478;12.066;2023-05-07T04:14:41;1.73;;;1.30;;
40995;SDS011;26723;57.478;12.066;2023-05-07T04:17:56;1.07;;;1.03;;
40995;SDS011;26723;57.478;12.066;2023-05-07T04:21:05;1.03;;;1.03;;
40995;SDS011;26723;57.478;12.066;2023-05-07T04:24:17;1.80;;;1.20;;
40995;SDS011;26723;57.478;12.066;2023-05-07T04:27:25;1.77;;;1.10;;
40995;SDS011;26723;57.478;12.066;2023-05-07T04:30:35;1.10;;;1.10;;
40995;SDS011;26723;57.478;12.066;2023-05-07T04:33:47;1.10;;;1.10;;
40995;SDS011;26723;57.478;12.066;2023-05-07T04:36:58;0.93;;;0.90;;
40995;SDS011;26723;57.478;12.066;2023-05-07T04:40:09;1.30;;;1.20;;
40995;SDS011;26723;57.478;12.066;2023-05-07T04:43:19;1.53;;;1.10;;
40995;SDS011;26723;57.478;12.066;2023-05-07T04:46:29;1.17;;;1.00;;
40995;SDS011;26723;57.478;12.066;2023-05-07T04:49:40;1.00;;;1.00;;
40995;SDS011;26723;57.478;12.066;2023-05-07T04:52:50;1.20;;;1.10;;
40995;SDS011;26723;57.478;12.066;2023-05-07T04:56:03;1.30;;;1.20;;
40995;SDS011;26723;57.478;12.066;2023-05-07T04:59:18;1.50;;;1.40;;
40995;SDS011;26723;57.478;12.066;2023-05-07T05:02:29;1.40;;;1.33;;
40995;SDS011;26723;57.478;12.066;2023-05-07T05:05:39;1.03;;;1.03;;
40995;SDS011;26723;57.478;12.066;2023-05-07T05:08:48;1.00;;;1.00;;
40995;SDS011;26723;57.478;12.066;2023-05-07T05:11:56;1.30;;;1.20;;
40995;SDS011;26723;57.478;12.066;2023-05-07T05:15:06;1.50;;;1.40;;
40995;SDS011;26723;57.478;12.066;2023-05-07T05:18:16;1.23;;;1.20;;
40995;SDS011;26723;57.478;12.066;2023-05-07T05:21:26;1.27;;;1.10;;
40995;SDS011;26723;57.478;12.066;2023-05-07T05:24:41;0.90;;;0.90;;
40995;SDS011;26723;57.478;12.066;2023-05-07T05:27:50;1.67;;;1.10;;
40995;SDS011;26723;57.478;12.066;2023-05-07T05:30:59;1.30;;;1.20;;
40995;SDS011;26723;57.478;12.066;2023-05-07T05:34:11;1.30;;;1.20;;
40995;SDS011;26723;57.478;12.066;2023-05-07T05:37:23;1.20;;;1.10;;
40995;SDS011;26723;57.478;12.066;2023-05-07T05:40:34;1.23;;;1.13;;
40995;SDS011;26723;57.478;12.066;2023-05-07T05:43:45;1.30;;;1.30;;
40995;SDS011;26723;57.478;12.066;2023-05-07T05:46:54;1.77;;;1.03;;
40995;SDS011;26723;57.478;12.066;2023-05-07T05:50:05;2.70;;;1.27;;
40995;SDS011;26723;57.478;12.066;2023-05-07T05:53:19;1.10;;;1.10;;
40995;SDS011;26723;57.478;12.066;2023-05-07T05:56:30;1.00;;;1.00;;
40995;SDS011;26723;57.478;12.066;2023-05-07T05:59:39;0.80;;;0.80;;
40995;SDS011;26723;57.478;12.066;2023-05-07T06:02:48;1.40;;;0.97;;
40995;SDS011;26723;57.478;12.066;2023-05-07T06:06:01;1.10;;;1.10;;
40995;SDS011;26723;57.478;12.066;2023-05-07T06:09:12;1.20;;;0.90;;
40995;SDS011;26723;57.478;12.066;2023-05-07T06:12:23;1.07;;;1.00;;
40995;SDS011;26723;57.478;12.066;2023-05-07T06:15:32;1.30;;;1.20;;
40995;SDS011;26723;57.478;12.066;2023-05-07T06:18:46;0.90;;;0.90;;
40995;SDS011;26723;57.478;12.066;2023-05-07T06:21:58;1.00;;;1.00;;
40995;SDS011;26723;57.478;12.066;2023-05-07T06:25:17;1.20;;;0.98;;
40995;SDS011;26723;57.478;12.066;2023-05-07T06:28:26;0.90;;;0.90;;
40995;SDS011;26723;57.478;12.066;2023-05-07T06:31:35;1.00;;;1.00;;
40995;SDS011;26723;57.478;12.066;2023-05-07T06:34:47;0.98;;;0.98;;
40995;SDS011;26723;57.478;12.066;2023-05-07T06:37:56;1.00;;;1.00;;
40995;SDS011;26723;57.478;12.066;2023-05-07T06:41:08;1.10;;;1.00;;
40995;SDS011;26723;57.478;12.066;2023-05-07T06:44:18;0.93;;;0.93;;
40995;SDS011;26723;57.478;12.066;2023-05-07T06:47:37;1.10;;;0.90;;
40995;SDS011;26723;57.478;12.066;2023-05-07T06:50:46;1.63;;;0.95;;
40995;SDS011;26723;57.478;12.066;2023-05-07T06:53:55;1.60;;;1.50;;
40995;SDS011;26723;57.478;12.066;2023-05-07T06:57:05;1.13;;;1.00;;
40995;SDS011;26723;57.478;12.066;2023-05-07T07:00:14;1.00;;;0.98;;
40995;SDS011;26723;57.478;12.066;2023-05-07T07:03:29;1.65;;;1.08;;
40995;SDS011;26723;57.478;12.066;2023-05-07T07:06:38;0.80;;;0.80;;
40995;SDS011;26723;57.478;12.066;2023-05-07T07:09:50;1.02;;;1.02;;
40995;SDS011;26723;57.478;12.066;2023-05-07T07:13:00;0.95;;;0.95;;
40995;SDS011;26723;57.478;12.066;2023-05-07T07:16:09;1.48;;;1.27;;
40995;SDS011;26723;57.478;12.066;2023-05-07T07:19:18;1.77;;;1.10;;
40995;SDS011;26723;57.478;12.066;2023-05-07T07:22:30;1.48;;;1.10;;
40995;SDS011;26723;57.478;12.066;2023-05-07T07:25:40;1.00;;;1.00;;
40995;SDS011;26723;57.478;12.066;2023-05-07T07:28:50;1.15;;;1.08;;
40995;SDS011;26723;57.478;12.066;2023-05-07T07:32:01;1.33;;;1.25;;
40995;SDS011;26723;57.478;12.066;2023-05-07T07:35:10;1.27;;;1.20;;
40995;SDS011;26723;57.478;12.066;2023-05-07T07:38:19;1.23;;;1.13;;
40995;SDS011;26723;57.478;12.066;2023-05-07T07:41:28;1.10;;;1.10;;
40995;SDS011;26723;57.478;12.066;2023-05-07T07:44:40;2.17;;;1.20;;
40995;SDS011;26723;57.478;12.066;2023-05-07T07:47:51;1.85;;;1.73;;
40995;SDS011;26723;57.478;12.066;2023-05-07T07:51:01;1.10;;;1.00;;
40995;SDS011;26723;57.478;12.066;2023-05-07T07:54:09;1.02;;;1.02;;
40995;SDS011;26723;57.478;12.066;2023-05-07T07:57:19;1.27;;;1.20;;
40995;SDS011;26723;57.478;12.066;2023-05-07T08:00:29;1.30;;;1.20;;
40995;SDS011;26723;57.478;12.066;2023-05-07T08:03:38;0.90;;;0.90;;
40995;SDS011;26723;57.478;12.066;2023-05-07T08:06:47;1.25;;;1.13;;
40995;SDS011;26723;57.478;12.066;2023-05-07T08:09:56;1.30;;;1.20;;
40995;SDS011;26723;57.478;12.066;2023-05-07T08:13:05;1.30;;;1.30;;
40995;SDS011;26723;57.478;12.066;2023-05-07T08:16:18;1.40;;;1.30;;
40995;SDS011;26723;57.478;12.066;2023-05-07T08:19:28;1.13;;;1.13;;
40995;SDS011;26723;57.478;12.066;2023-05-07T08:22:37;1.58;;;1.30;;
40995;SDS011;26723;57.478;12.066;2023-05-07T08:25:46;1.20;;;1.20;;
40995;SDS011;26723;57.478;12.066;2023-05-07T08:28:56;1.88;;;1.30;;
40995;SDS011;26723;57.478;12.066;2023-05-07T08:32:06;1.25;;;1.20;;
40995;SDS011;26723;57.478;12.066;2023-05-07T08:35:14;1.52;;;1.42;;
40995;SDS011;26723;57.478;12.066;2023-05-07T08:38:23;2.05;;;1.30;;
40995;SDS011;26723;57.478;12.066;2023-05-07T08:41:32;1.95;;;1.52;;
40995;SDS011;26723;57.478;12.066;2023-05-07T08:44:41;1.45;;;1.35;;
40995;SDS011;26723;57.478;12.066;2023-05-07T08:47:58;1.10;;;1.10;;
40995;SDS011;26723;57.478;12.066;2023-05-07T08:51:12;1.27;;;1.17;;
40995;SDS011;26723;57.478;12.066;2023-05-07T08:54:26;1.80;;;1.20;;
40995;SDS011;26723;57.478;12.066;2023-05-07T08:57:36;1.50;;;1.40;;
40995;SDS011;26723;57.478;12.066;2023-05-07T09:00:47;1.08;;;1.05;;
40995;SDS011;26723;57.478;12.066;2023-05-07T09:04:03;1.13;;;1.10;;
40995;SDS011;26723;57.478;12.066;2023-05-07T09:07:14;1.52;;;1.50;;
40995;SDS011;26723;57.478;12.066;2023-05-07T09:10:23;1.27;;;1.15;;
40995;SDS011;26723;57.478;12.066;2023-05-07T09:13:32;1.10;;;1.10;;
40995;SDS011;26723;57.478;12.066;2023-05-07T09:16:42;1.42;;;1.20;;
40995;SDS011;26723;57.478;12.066;2023-05-07T09:19:54;1.85;;;1.25;;
40995;SDS011;26723;57.478;12.066;2023-05-07T09:23:02;1.80;;;1.20;;
40995;SDS011;26723;57.478;12.066;2023-05-07T09:26:11;1.35;;;1.30;;
40995;SDS011;26723;57.478;12.066;2023-05-07T09:29:21;1.10;;;1.10;;
40995;SDS011;26723;57.478;12.066;2023-05-07T09:32:29;1.33;;;1.23;;
40995;SDS011;26723;57.478;12.066;2023-05-07T09:35:43;1.85;;;1.25;;
40995;SDS011;26723;57.478;12.066;2023-05-07T09:38:56;1.42;;;1.40;;
40995;SDS011;26723;57.478;12.066;2023-05-07T09:42:08;1.20;;;1.20;;
40995;SDS011;26723;57.478;12.066;2023-05-07T09:45:22;1.10;;;1.00;;
40995;SDS011;26723;57.478;12.066;2023-05-07T09:48:34;1.08;;;1.00;;
40995;SDS011;26723;57.478;12.066;2023-05-07T09:51:49;0.95;;;0.95;;
40995;SDS011;26723;57.478;12.066;2023-05-07T09:55:02;2.90;;;1.25;;
40995;SDS011;26723;57.478;12.066;2023-05-07T09:58:12;1.10;;;1.10;;
40995;SDS011;26723;57.478;12.066;2023-05-07T10:01:25;1.30;;;1.20;;
40995;SDS011;26723;57.478;12.066;2023-05-07T10:04:34;0.95;;;0.95;;
40995;SDS011;26723;57.478;12.066;2023-05-07T10:07:45;1.33;;;1.33;;
40995;SDS011;26723;57.478;12.066;2023-05-07T10:10:54;1.30;;;1.20;;
40995;SDS011;26723;57.478;12.066;2023-05-07T10:14:06;1.02;;;1.02;;
40995;SDS011;26723;57.478;12.066;2023-05-07T10:17:15;1.40;;;1.30;;
40995;SDS011;26723;57.478;12.066;2023-05-07T10:20:27;1.27;;;1.23;;
40995;SDS011;26723;57.478;12.066;2023-05-07T10:23:40;0.90;;;0.90;;
40995;SDS011;26723;57.478;12.066;2023-05-07T10:26:52;1.00;;;1.00;;
40995;SDS011;26723;57.478;12.066;2023-05-07T10:30:07;1.23;;;1.10;;
40995;SDS011;26723;57.478;12.066;2023-05-07T10:33:25;1.20;;;1.02;;
40995;SDS011;26723;57.478;12.066;2023-05-07T10:36:37;1.55;;;1.20;;
40995;SDS011;26723;57.478;12.066;2023-05-07T10:39:49;1.00;;;1.00;;
40995;SDS011;26723;57.478;12.066;2023-05-07T10:43:01;1.23;;;1.13;;
40995;SDS011;26723;57.478;12.066;2023-05-07T10:46:24;1.05;;;1.05;;
40995;SDS011;26723;57.478;12.066;2023-05-07T10:50:20;1.33;;;1.30;;
40995;SDS011;26723;57.478;12.066;2023-05-07T10:53:39;1.85;;;1.30;;
40995;SDS011;26723;57.478;12.066;2023-05-07T10:56:58;1.15;;;1.10;;
40995;SDS011;26723;57.478;12.066;2023-05-07T11:00:57;1.40;;;1.30;;
40995;SDS011;26723;57.478;12.066;2023-05-07T11:04:19;1.10;;;1.10;;
40995;SDS011;26723;57.478;12.066;2023-05-07T11:07:53;1.23;;;1.23;;
40995;SDS011;26723;57.478;12.066;2023-05-07T11:11:09;1.40;;;1.30;;
40995;SDS011;26723;57.478;12.066;2023-05-07T11:14:45;1.30;;;1.20;;
40995;SDS011;26723;57.478;12.066;2023-05-07T11:18:04;1.48;;;1.23;;
40995;SDS011;26723;57.478;12.066;2023-05-07T11:21:34;1.15;;;1.10;;
40995;SDS011;26723;57.478;12.066;2023-05-07T11:25:01;1.30;;;1.25;;
40995;SDS011;26723;57.478;12.066;2023-05-07T11:28:10;1.10;;;1.10;;
40995;SDS011;26723;57.478;12.066;2023-05-07T11:31:29;1.15;;;1.15;;
40995;SDS011;26723;57.478;12.066;2023-05-07T11:34:40;1.00;;;1.00;;
40995;SDS011;26723;57.478;12.066;2023-05-07T11:37:48;1.05;;;1.05;;
40995;SDS011;26723;57.478;12.066;2023-05-07T11:40:58;1.23;;;1.23;;
40995;SDS011;26723;57.478;12.066;2023-05-07T11:44:09;1.00;;;1.00;;
40995;SDS011;26723;57.478;12.066;2023-05-07T11:47:19;1.15;;;1.10;;
40995;SDS011;26723;57.478;12.066;2023-05-07T11:50:29;1.42;;;1.23;;
40995;SDS011;26723;57.478;12.066;2023-05-07T11:53:38;1.17;;;1.08;;
40995;SDS011;26723;57.478;12.066;2023-05-07T11:56:47;1.67;;;1.15;;
40995;SDS011;26723;57.478;12.066;2023-05-07T11:59:56;1.02;;;1.02;;
40995;SDS011;26723;57.478;12.066;2023-05-07T12:03:19;1.20;;;1.20;;
40995;SDS011;26723;57.478;12.066;2023-05-07T12:06:28;1.20;;;1.15;;
40995;SDS011;26723;57.478;12.066;2023-05-07T12:09:38;1.42;;;1.20;;
40995;SDS011;26723;57.478;12.066;2023-05-07T12:12:46;1.30;;;1.30;;
40995;SDS011;26723;57.478;12.066;2023-05-07T12:15:55;1.10;;;1.10;;
40995;SDS011;26723;57.478;12.066;2023-05-07T12:19:05;1.00;;;1.00;;
40995;SDS011;26723;57.478;12.066;2023-05-07T12:22:15;1.85;;;1.30;;
40995;SDS011;26723;57.478;12.066;2023-05-07T12:25:24;1.02;;;1.02;;
40995;SDS011;26723;57.478;12.066;2023-05-07T12:28:36;1.60;;;1.50;;
40995;SDS011;26723;57.478;12.066;2023-05-07T12:31:45;1.25;;;1.23;;
40995;SDS011;26723;57.478;12.066;2023-05-07T12:34:55;1.50;;;1.40;;
40995;SDS011;26723;57.478;12.066;2023-05-07T12:38:04;1.30;;;1.20;;
40995;SDS011;26723;57.478;12.066;2023-05-07T12:41:16;1.50;;;1.40;;
40995;SDS011;26723;57.478;12.066;2023-05-07T12:44:25;2.20;;;1.50;;
40995;SDS011;26723;57.478;12.066;2023-05-07T12:47:37;2.30;;;1.38;;
40995;SDS011;26723;57.478;12.066;2023-05-07T12:50:50;1.65;;;1.40;;
40995;SDS011;26723;57.478;12.066;2023-05-07T12:53:58;2.30;;;1.58;;
40995;SDS011;26723;57.478;12.066;2023-05-07T12:57:07;2.05;;;1.58;;
40995;SDS011;26723;57.478;12.066;2023-05-07T13:00:16;1.50;;;1.50;;
40995;SDS011;26723;57.478;12.066;2023-05-07T13:03:26;1.58;;;1.42;;
40995;SDS011;26723;57.478;12.066;2023-05-07T13:06:37;1.50;;;1.40;;
40995;SDS011;26723;57.478;12.066;2023-05-07T13:09:48;1.48;;;1.38;;
40995;SDS011;26723;57.478;12.066;2023-05-07T13:12:56;1.60;;;1.50;;
40995;SDS011;26723;57.478;12.066;2023-05-07T13:16:06;1.77;;;1.67;;
40995;SDS011;26723;57.478;12.066;2023-05-07T13:19:15;2.10;;;1.60;;
40995;SDS011;26723;57.478;12.066;2023-05-07T13:22:25;1.67;;;1.58;;
40995;SDS011;26723;57.478;12.066;2023-05-07T13:25:34;1.65;;;1.55;;
40995;SDS011;26723;57.478;12.066;2023-05-07T13:28:44;2.03;;;1.65;;
40995;SDS011;26723;57.478;12.066;2023-05-07T13:31:53;1.50;;;1.40;;
40995;SDS011;26723;57.478;12.066;2023-05-07T13:35:02;2.22;;;1.63;;
40995;SDS011;26723;57.478;12.066;2023-05-07T13:38:12;1.90;;;1.80;;
40995;SDS011;26723;57.478;12.066;2023-05-07T13:41:24;1.90;;;1.80;;
40995;SDS011;26723;57.478;12.066;2023-05-07T13:44:35;1.50;;;1.50;;
40995;SDS011;26723;57.478;12.066;2023-05-07T13:47:44;2.28;;;1.55;;
40995;SDS011;26723;57.478;12.066;2023-05-07T13:50:52;3.10;;;1.70;;
40995;SDS011;26723;57.478;12.066;2023-05-07T13:54:02;1.58;;;1.40;;
40995;SDS011;26723;57.478;12.066;2023-05-07T13:57:12;1.65;;;1.55;;
40995;SDS011;26723;57.478;12.066;2023-05-07T14:00:21;1.90;;;1.80;;
40995;SDS011;26723;57.478;12.066;2023-05-07T14:03:29;1.83;;;1.70;;
40995;SDS011;26723;57.478;12.066;2023-05-07T14:06:38;1.45;;;1.35;;
40995;SDS011;26723;57.478;12.066;2023-05-07T14:09:48;1.60;;;1.50;;
40995;SDS011;26723;57.478;12.066;2023-05-07T14:12:56;1.98;;;1.65;;
40995;SDS011;26723;57.478;12.066;2023-05-07T14:16:05;2.17;;;1.50;;
40995;SDS011;26723;57.478;12.066;2023-05-07T14:19:13;1.70;;;1.60;;
40995;SDS011;26723;57.478;12.066;2023-05-07T14:22:23;1.60;;;1.50;;
40995;SDS011;26723;57.478;12.066;2023-05-07T14:25:33;2.00;;;1.90;;
40995;SDS011;26723;57.478;12.066;2023-05-07T14:28:41;1.60;;;1.50;;
40995;SDS011;26723;57.478;12.066;2023-05-07T14:31:52;1.85;;;1.67;;
40995;SDS011;26723;57.478;12.066;2023-05-07T14:35:01;1.60;;;1.50;;
40995;SDS011;26723;57.478;12.066;2023-05-07T14:38:10;1.85;;;1.52;;
40995;SDS011;26723;57.478;12.066;2023-05-07T14:41:21;1.80;;;1.70;;
40995;SDS011;26723;57.478;12.066;2023-05-07T14:44:30;1.85;;;1.75;;
40995;SDS011;26723;57.478;12.066;2023-05-07T14:47:39;3.05;;;1.73;;
40995;SDS011;26723;57.478;12.066;2023-05-07T14:50:48;1.80;;;1.60;;
40995;SDS011;26723;57.478;12.066;2023-05-07T14:53:58;1.77;;;1.67;;
40995;SDS011;26723;57.478;12.066;2023-05-07T14:57:09;1.70;;;1.60;;
40995;SDS011;26723;57.478;12.066;2023-05-07T15:00:20;1.60;;;1.50;;
40995;SDS011;26723;57.478;12.066;2023-05-07T15:03:29;2.63;;;1.80;;
40995;SDS011;26723;57.478;12.066;2023-05-07T15:06:38;1.50;;;1.40;;
40995;SDS011;26723;57.478;12.066;2023-05-07T15:09:47;2.28;;;1.60;;
40995;SDS011;26723;57.478;12.066;2023-05-07T15:12:58;1.60;;;1.50;;
40995;SDS011;26723;57.478;12.066;2023-05-07T15:16:06;1.70;;;1.60;;
40995;SDS011;26723;57.478;12.066;2023-05-07T15:19:15;1.40;;;1.30;;
40995;SDS011;26723;57.478;12.066;2023-05-07T15:22:28;1.50;;;1.38;;
40995;SDS011;26723;57.478;12.066;2023-05-07T15:25:37;1.65;;;1.55;;
40995;SDS011;26723;57.478;12.066;2023-05-07T15:28:47;1.20;;;1.20;;
40995;SDS011;26723;57.478;12.066;2023-05-07T15:31:56;1.35;;;1.35;;
40995;SDS011;26723;57.478;12.066;2023-05-07T15:35:06;1.60;;;1.50;;
40995;SDS011;26723;57.478;12.066;2023-05-07T15:38:16;1.35;;;1.25;;
40995;SDS011;26723;57.478;12.066;2023-05-07T15:41:24;1.60;;;1.50;;
40995;SDS011;26723;57.478;12.066;2023-05-07T15:44:42;1.25;;;1.17;;
40995;SDS011;26723;57.478;12.066;2023-05-07T15:48:17;1.80;;;1.70;;
40995;SDS011;26723;57.478;12.066;2023-05-07T15:51:27;4.65;;;1.70;;
40995;SDS011;26723;57.478;12.066;2023-05-07T15:54:36;1.83;;;1.58;;
40995;SDS011;26723;57.478;12.066;2023-05-07T15:57:45;1.85;;;1.60;;
40995;SDS011;26723;57.478;12.066;2023-05-07T16:00:55;2.30;;;1.60;;
40995;SDS011;26723;57.478;12.066;2023-05-07T16:04:05;1.60;;;1.50;;
40995;SDS011;26723;57.478;12.066;2023-05-07T16:07:15;1.65;;;1.40;;
40995;SDS011;26723;57.478;12.066;2023-05-07T16:10:25;1.48;;;1.45;;
40995;SDS011;26723;57.478;12.066;2023-05-07T16:13:37;1.45;;;1.35;;
40995;SDS011;26723;57.478;12.066;2023-05-07T16:16:47;1.60;;;1.50;;
40995;SDS011;26723;57.478;12.066;2023-05-07T16:19:56;3.58;;;1.88;;
40995;SDS011;26723;57.478;12.066;2023-05-07T16:23:05;1.80;;;1.70;;
40995;SDS011;26723;57.478;12.066;2023-05-07T16:26:14;1.90;;;1.80;;
40995;SDS011;26723;57.478;12.066;2023-05-07T16:29:24;1.50;;;1.40;;
40995;SDS011;26723;57.478;12.066;2023-05-07T16:32:34;1.60;;;1.50;;
40995;SDS011;26723;57.478;12.066;2023-05-07T16:35:43;1.70;;;1.60;;
40995;SDS011;26723;57.478;12.066;2023-05-07T16:38:53;1.55;;;1.35;;
40995;SDS011;26723;57.478;12.066;2023-05-07T16:42:01;1.75;;;1.65;;
40995;SDS011;26723;57.478;12.066;2023-05-07T16:45:10;1.50;;;1.40;;
40995;SDS011;26723;57.478;12.066;2023-05-07T16:48:24;1.50;;;1.50;;
40995;SDS011;26723;57.478;12.066;2023-05-07T16:51:36;2.50;;;2.30;;
40995;SDS011;26723;57.478;12.066;2023-05-07T16:54:48;1.75;;;1.65;;
40995;SDS011;26723;57.478;12.066;2023-05-07T16:57:57;1.58;;;1.45;;
40995;SDS011;26723;57.478;12.066;2023-05-07T17:01:07;1.40;;;1.25;;
40995;SDS011;26723;57.478;12.066;2023-05-07T17:04:19;1.70;;;1.60;;
40995;SDS011;26723;57.478;12.066;2023-05-07T17:07:30;1.50;;;1.40;;
40995;SDS011;26723;57.478;12.066;2023-05-07T17:10:39;1.70;;;1.60;;
40995;SDS011;26723;57.478;12.066;2023-05-07T17:13:48;1.67;;;1.58;;
40995;SDS011;26723;57.478;12.066;2023-05-07T17:16:57;1.70;;;1.60;;
40995;SDS011;26723;57.478;12.066;2023-05-07T17:20:11;1.92;;;1.83;;
40995;SDS011;26723;57.478;12.066;2023-05-07T17:23:21;2.17;;;1.63;;
40995;SDS011;26723;57.478;12.066;2023-05-07T17:26:29;2.38;;;1.60;;
40995;SDS011;26723;57.478;12.066;2023-05-07T17:29:40;1.67;;;1.58;;
40995;SDS011;26723;57.478;12.066;2023-05-07T17:32:49;1.70;;;1.40;;
40995;SDS011;26723;57.478;12.066;2023-05-07T17:35:59;1.80;;;1.70;;
40995;SDS011;26723;57.478;12.066;2023-05-07T17:39:08;1.50;;;1.40;;
40995;SDS011;26723;57.478;12.066;2023-05-07T17:42:17;1.70;;;1.58;;
40995;SDS011;26723;57.478;12.066;2023-05-07T17:45:25;2.80;;;1.70;;
40995;SDS011;26723;57.478;12.066;2023-05-07T17:48:34;1.60;;;1.50;;
40995;SDS011;26723;57.478;12.066;2023-05-07T17:51:44;1.70;;;1.60;;
40995;SDS011;26723;57.478;12.066;2023-05-07T17:55:01;1.85;;;1.60;;
40995;SDS011;26723;57.478;12.066;2023-05-07T17:58:15;1.60;;;1.50;;
40995;SDS011;26723;57.478;12.066;2023-05-07T18:02:01;1.60;;;1.35;;
40995;SDS011;26723;57.478;12.066;2023-05-07T18:05:10;3.13;;;1.60;;
40995;SDS011;26723;57.478;12.066;2023-05-07T18:08:20;2.60;;;1.40;;
40995;SDS011;26723;57.478;12.066;2023-05-07T18:11:32;1.90;;;1.80;;
40995;SDS011;26723;57.478;12.066;2023-05-07T18:14:43;2.42;;;1.50;;
40995;SDS011;26723;57.478;12.066;2023-05-07T18:17:53;2.05;;;1.45;;
40995;SDS011;26723;57.478;12.066;2023-05-07T18:21:02;1.70;;;1.60;;
40995;SDS011;26723;57.478;12.066;2023-05-07T18:24:13;1.52;;;1.42;;
40995;SDS011;26723;57.478;12.066;2023-05-07T18:27:26;1.77;;;1.40;;
40995;SDS011;26723;57.478;12.066;2023-05-07T18:30:34;2.97;;;1.90;;
40995;SDS011;26723;57.478;12.066;2023-05-07T18:33:43;2.08;;;1.98;;
40995;SDS011;26723;57.478;12.066;2023-05-07T18:36:52;2.20;;;2.10;;
40995;SDS011;26723;57.478;12.066;2023-05-07T18:40:03;2.13;;;1.95;;
40995;SDS011;26723;57.478;12.066;2023-05-07T18:43:13;1.80;;;1.70;;
40995;SDS011;26723;57.478;12.066;2023-05-07T18:46:21;1.65;;;1.60;;
40995;SDS011;26723;57.478;12.066;2023-05-07T18:49:30;1.77;;;1.63;;
40995;SDS011;26723;57.478;12.066;2023-05-07T18:52:39;1.40;;;1.40;;
40995;SDS011;26723;57.478;12.066;2023-05-07T18:55:49;1.60;;;1.50;;